Time;durP1;ratioP1;P1;durP2;ratioP2;P2;SDS_P1;SDS_P2;PMS_P1;PMS_P2;Temp;Humidity;BMP_temperature;BMP_pressure;BME280_temperature;BME280_humidity;BME280_pressure;Samples;Min_cycle;Max_cycle;Signal;HPM_P1;HPM_P2
2023/03/27 00:00:37;;;;;;;9.50;2.20;;;;;;;;;;5045586;28;20423;-80
2023/03/27 00:03:04;;;;;;;8.90;3.08;;;;;;;;;;5045443;28;20475;-80
2023/03/27 00:05:31;;;;;;;14.85;3.00;;;;;;;;;;5043090;28;20513;-80
2023/03/27 00:08:00;;;;;;;8.77;2.30;;;;;;;;;;5048945;28;20436;-80
2023/03/27 00:10:27;;;;;;;8.07;2.33;;;;;;;;;;5039209;28;20842;-80
2023/03/27 00:12:53;;;;;;;8.10;2.50;;;;;;;;;;5045202;28;20421;-80
2023/03/27 00:15:20;;;;;;;8.85;2.42;;;;;;;;;;5045117;28;20436;-80
2023/03/27 00:17:47;;;;;;;8.77;2.70;;;;;;;;;;5045047;28;20961;-80
2023/03/27 00:20:14;;;;;;;7.53;2.20;;;;;;;;;;5046140;28;20455;-80
2023/03/27 00:22:42;;;;;;;7.60;1.90;;;;;;;;;;5042595;28;20414;-80
2023/03/27 00:25:11;;;;;;;8.38;2.28;;;;;;;;;;5045420;28;20421;-80
2023/03/27 00:27:38;;;;;;;11.02;3.10;;;;;;;;;;5042392;28;20421;-80
2023/03/27 00:30:05;;;;;;;10.50;2.83;;;;;;;;;;5036084;28;20426;-80
2023/03/27 00:32:32;;;;;;;8.67;2.80;;;;;;;;;;5041573;28;20535;-80
2023/03/27 00:34:59;;;;;;;5.43;1.80;;;;;;;;;;5039800;28;20422;-80
2023/03/27 00:37:25;;;;;;;5.30;1.80;;;;;;;;;;5047429;28;20421;-80
2023/03/27 00:39:52;;;;;;;13.35;3.00;;;;;;;;;;5046101;28;20430;-80
2023/03/27 00:42:21;;;;;;;8.57;2.50;;;;;;;;;;5044889;28;20428;-80
2023/03/27 00:44:48;;;;;;;7.13;2.10;;;;;;;;;;5028337;28;20497;-80
2023/03/27 00:47:15;;;;;;;8.87;2.40;;;;;;;;;;5042621;28;20430;-80
2023/03/27 00:49:42;;;;;;;11.52;2.25;;;;;;;;;;5045654;28;21016;-80
2023/03/27 00:52:08;;;;;;;10.53;2.50;;;;;;;;;;5047130;28;20432;-80
2023/03/27 00:54:38;;;;;;;8.88;2.72;;;;;;;;;;5042386;28;20430;-82
2023/03/27 00:57:07;;;;;;;10.95;2.00;;;;;;;;;;5042930;28;20429;-80
2023/03/27 00:59:37;;;;;;;10.00;2.20;;;;;;;;;;5043883;28;20431;-80
2023/03/27 01:02:04;;;;;;;9.45;2.80;;;;;;;;;;5043652;28;20452;-80
2023/03/27 01:04:32;;;;;;;7.85;1.95;;;;;;;;;;5041485;28;20427;-80
2023/03/27 01:06:59;;;;;;;8.27;2.10;;;;;;;;;;5043979;28;20516;-80
2023/03/27 01:09:26;;;;;;;7.00;1.80;;;;;;;;;;5043268;28;20438;-80
2023/03/27 01:12:00;;;;;;;12.43;2.45;;;;;;;;;;5048515;28;20787;-80
2023/03/27 01:14:30;;;;;;;7.88;2.30;;;;;;;;;;5048623;28;20445;-80
2023/03/27 01:17:06;;;;;;;5.47;1.80;;;;;;;;;;5043986;28;20467;-80
2023/03/27 01:20:01;;;;;;;6.82;2.13;;;;;;;;;;5044954;28;20431;-80
2023/03/27 01:22:44;;;;;;;11.90;2.45;;;;;;;;;;5009680;28;20465;-80
2023/03/27 01:25:22;;;;;;;7.60;2.00;;;;;;;;;;5042389;28;20562;-80
2023/03/27 01:28:07;;;;;;;11.75;2.35;;;;;;;;;;5046493;28;20425;-80
2023/03/27 01:30:35;;;;;;;7.93;2.20;;;;;;;;;;5043394;28;20427;-80
2023/03/27 01:33:29;;;;;;;5.57;2.00;;;;;;;;;;5049006;28;20562;-80
2023/03/27 01:36:00;;;;;;;6.40;2.20;;;;;;;;;;5049243;28;20433;-80
2023/03/27 01:38:46;;;;;;;7.95;2.00;;;;;;;;;;5048154;28;20509;-80
2023/03/27 01:41:16;;;;;;;10.38;2.10;;;;;;;;;;5048148;28;20918;-80
2023/03/27 01:43:59;;;;;;;6.82;2.00;;;;;;;;;;5048740;28;20916;-80
2023/03/27 01:46:30;;;;;;;6.70;2.70;;;;;;;;;;5050426;28;20507;-80
2023/03/27 01:48:58;;;;;;;7.97;2.03;;;;;;;;;;5050068;28;20504;-80
2023/03/27 01:51:28;;;;;;;8.13;2.30;;;;;;;;;;5047313;28;20908;-80
2023/03/27 01:53:58;;;;;;;5.82;1.70;;;;;;;;;;5049042;28;20943;-80
2023/03/27 01:56:30;;;;;;;9.98;2.35;;;;;;;;;;5050217;28;20797;-80
2023/03/27 01:58:59;;;;;;;11.70;2.90;;;;;;;;;;5049911;28;20898;-80
2023/03/27 02:01:29;;;;;;;8.82;3.20;;;;;;;;;;5048351;28;20425;-80
2023/03/27 02:03:57;;;;;;;7.93;3.30;;;;;;;;;;5050922;28;20500;-80
2023/03/27 02:06:25;;;;;;;7.95;3.80;;;;;;;;;;5047340;28;20410;-80
2023/03/27 02:08:55;;;;;;;12.98;4.47;;;;;;;;;;5046710;28;20417;-80
2023/03/27 02:11:23;;;;;;;11.88;4.90;;;;;;;;;;5047723;28;20429;-80
2023/03/27 02:13:52;;;;;;;13.48;5.10;;;;;;;;;;5051712;28;20520;-80
2023/03/27 02:16:19;;;;;;;9.75;4.43;;;;;;;;;;5055492;28;20440;-80
2023/03/27 02:18:49;;;;;;;13.40;6.00;;;;;;;;;;5049181;28;20828;-79
2023/03/27 02:21:16;;;;;;;10.30;5.15;;;;;;;;;;5057973;28;20431;-80
2023/03/27 02:23:42;;;;;;;14.60;5.20;;;;;;;;;;5055474;28;20405;-81
2023/03/27 02:26:10;;;;;;;10.63;4.50;;;;;;;;;;5054297;28;20923;-79
2023/03/27 02:28:41;;;;;;;11.55;4.88;;;;;;;;;;5051846;28;20412;-80
2023/03/27 02:31:16;;;;;;;10.38;4.43;;;;;;;;;;5050761;28;20444;-80
2023/03/27 02:33:47;;;;;;;8.07;3.20;;;;;;;;;;5055262;28;20415;-80
2023/03/27 02:36:20;;;;;;;8.90;3.20;;;;;;;;;;5056272;28;20429;-81
2023/03/27 02:38:51;;;;;;;10.23;3.10;;;;;;;;;;5055761;28;20423;-80
2023/03/27 02:41:21;;;;;;;9.65;2.80;;;;;;;;;;5056321;28;20439;-80
2023/03/27 02:43:50;;;;;;;7.63;2.40;;;;;;;;;;5049795;28;20503;-80
2023/03/27 02:46:21;;;;;;;9.80;3.00;;;;;;;;;;5053481;28;20439;-80
2023/03/27 02:48:55;;;;;;;9.37;2.80;;;;;;;;;;5051971;28;20486;-81
2023/03/27 02:51:25;;;;;;;5.65;3.40;;;;;;;;;;5056408;28;20425;-79
2023/03/27 02:53:53;;;;;;;13.45;3.55;;;;;;;;;;5052241;28;20434;-81
2023/03/27 02:56:19;;;;;;;9.57;4.32;;;;;;;;;;5057247;28;20426;-81
2023/03/27 02:58:48;;;;;;;10.80;4.80;;;;;;;;;;5052147;28;21308;-80
2023/03/27 03:01:16;;;;;;;11.35;4.40;;;;;;;;;;5057671;28;20435;-81
2023/03/27 03:03:52;;;;;;;9.60;4.87;;;;;;;;;;5055202;28;20410;-81
2023/03/27 03:06:19;;;;;;;11.65;5.88;;;;;;;;;;5053550;28;20434;-82
2023/03/27 03:08:46;;;;;;;10.57;6.07;;;;;;;;;;5056645;28;20413;-81
2023/03/27 03:11:13;;;;;;;14.93;7.10;;;;;;;;;;5054567;28;20857;-81
2023/03/27 03:13:41;;;;;;;10.20;6.50;;;;;;;;;;5058726;28;20413;-83
2023/03/27 03:16:08;;;;;;;13.80;5.70;;;;;;;;;;5056228;28;20431;-81
2023/03/27 03:18:37;;;;;;;9.80;5.70;;;;;;;;;;5057270;28;20415;-82
2023/03/27 03:21:05;;;;;;;9.98;4.75;;;;;;;;;;5060356;28;20417;-81
2023/03/27 03:23:31;;;;;;;10.48;4.80;;;;;;;;;;5048265;28;20418;-79
2023/03/27 03:25:58;;;;;;;13.38;4.70;;;;;;;;;;5048594;28;20505;-79
2023/03/27 03:28:25;;;;;;;12.30;6.05;;;;;;;;;;5043598;28;20419;-79
2023/03/27 03:30:52;;;;;;;10.00;6.10;;;;;;;;;;5050322;28;21194;-79
2023/03/27 03:33:19;;;;;;;8.87;4.70;;;;;;;;;;5046414;28;20446;-80
2023/03/27 03:35:45;;;;;;;9.10;3.83;;;;;;;;;;5048991;28;21135;-79
2023/03/27 03:38:14;;;;;;;9.40;3.83;;;;;;;;;;5046742;28;20419;-80
2023/03/27 03:40:41;;;;;;;5.05;2.63;;;;;;;;;;5064424;28;20489;-80
2023/03/27 03:43:07;;;;;;;7.43;2.35;;;;;;;;;;5067530;28;20913;-79
2023/03/27 03:45:33;;;;;;;7.13;3.15;;;;;;;;;;5068904;28;20908;-80
2023/03/27 03:48:00;;;;;;;11.00;3.20;;;;;;;;;;5070290;28;20408;-80
2023/03/27 03:50:28;;;;;;;9.05;3.40;;;;;;;;;;5063524;28;20419;-80
2023/03/27 03:52:55;;;;;;;7.35;3.88;;;;;;;;;;5058558;28;20433;-79
2023/03/27 03:55:24;;;;;;;11.10;3.50;;;;;;;;;;5067667;28;20428;-79
2023/03/27 03:57:51;;;;;;;7.93;2.90;;;;;;;;;;5047833;28;20425;-80
2023/03/27 04:00:17;;;;;;;6.75;2.63;;;;;;;;;;5066469;28;20430;-80
2023/03/27 04:02:44;;;;;;;5.57;2.42;;;;;;;;;;5065912;28;20508;-80
2023/03/27 04:05:11;;;;;;;10.15;2.90;;;;;;;;;;5064660;28;20448;-79
2023/03/27 04:07:39;;;;;;;8.95;2.80;;;;;;;;;;5065996;28;20436;-80
2023/03/27 04:10:07;;;;;;;6.90;2.90;;;;;;;;;;5064295;28;20503;-80
2023/03/27 04:12:35;;;;;;;8.85;2.50;;;;;;;;;;5064483;28;20433;-80
2023/03/27 04:15:02;;;;;;;7.50;2.30;;;;;;;;;;5064406;28;20440;-80
2023/03/27 04:17:28;;;;;;;8.23;2.20;;;;;;;;;;5067128;28;20475;-80
2023/03/27 04:19:54;;;;;;;6.28;1.92;;;;;;;;;;5066740;28;20423;-80
2023/03/27 04:22:22;;;;;;;5.10;1.83;;;;;;;;;;5066846;28;20427;-80
2023/03/27 04:24:49;;;;;;;6.30;2.55;;;;;;;;;;5063837;28;20453;-80
2023/03/27 04:27:15;;;;;;;5.70;2.03;;;;;;;;;;5067738;28;20458;-80
2023/03/27 04:29:46;;;;;;;6.35;2.25;;;;;;;;;;5063061;28;20844;-80
2023/03/27 04:32:12;;;;;;;8.40;2.80;;;;;;;;;;5064817;28;20432;-79
2023/03/27 04:34:39;;;;;;;8.13;2.30;;;;;;;;;;5066146;28;20422;-80
2023/03/27 04:37:06;;;;;;;6.28;2.20;;;;;;;;;;5066636;28;20828;-80
2023/03/27 04:39:38;;;;;;;7.28;2.42;;;;;;;;;;5067750;28;20427;-80
2023/03/27 04:42:04;;;;;;;7.50;2.40;;;;;;;;;;5068561;28;20462;-80
2023/03/27 04:44:31;;;;;;;5.32;2.00;;;;;;;;;;5065931;28;20433;-79
2023/03/27 04:47:01;;;;;;;5.75;2.40;;;;;;;;;;5063347;28;20423;-81
2023/03/27 04:49:28;;;;;;;9.10;3.10;;;;;;;;;;5066941;28;20422;-80
2023/03/27 04:51:54;;;;;;;9.45;3.28;;;;;;;;;;5068840;28;20433;-80
2023/03/27 04:54:22;;;;;;;9.77;3.70;;;;;;;;;;5068506;28;20430;-80
2023/03/27 04:56:48;;;;;;;10.73;3.53;;;;;;;;;;5067555;28;20427;-80
2023/03/27 04:59:15;;;;;;;11.88;4.15;;;;;;;;;;5063754;28;20429;-80
2023/03/27 05:01:41;;;;;;;7.37;2.80;;;;;;;;;;5067416;28;20479;-80
2023/03/27 05:04:09;;;;;;;7.43;2.53;;;;;;;;;;5062993;28;20416;-80
2023/03/27 05:06:36;;;;;;;6.80;2.23;;;;;;;;;;5069086;28;20799;-78
2023/03/27 05:09:02;;;;;;;8.38;3.08;;;;;;;;;;5065970;28;20417;-80
2023/03/27 05:11:29;;;;;;;11.60;2.80;;;;;;;;;;5068121;28;20520;-80
2023/03/27 05:13:55;;;;;;;7.70;2.60;;;;;;;;;;5065722;28;20465;-78
2023/03/27 05:16:23;;;;;;;3.83;1.90;;;;;;;;;;5066196;28;20432;-78
2023/03/27 05:18:49;;;;;;;6.15;2.72;;;;;;;;;;5066943;28;20506;-79
2023/03/27 05:21:17;;;;;;;7.17;2.87;;;;;;;;;;5072175;28;20590;-78
2023/03/27 05:23:43;;;;;;;10.97;2.87;;;;;;;;;;5069476;28;20424;-78
2023/03/27 05:26:11;;;;;;;5.70;2.20;;;;;;;;;;5068913;28;20429;-79
2023/03/27 05:28:38;;;;;;;6.82;2.65;;;;;;;;;;5066166;28;20413;-78
2023/03/27 05:31:05;;;;;;;8.07;2.60;;;;;;;;;;5066487;28;20929;-80
2023/03/27 05:33:32;;;;;;;10.38;3.30;;;;;;;;;;5064744;28;20423;-79
2023/03/27 05:35:58;;;;;;;7.97;2.55;;;;;;;;;;5074555;28;20456;-79
2023/03/27 05:38:26;;;;;;;6.60;3.22;;;;;;;;;;5069505;28;20421;-79
2023/03/27 05:40:52;;;;;;;7.95;2.35;;;;;;;;;;5066589;28;20409;-79
2023/03/27 05:43:18;;;;;;;7.45;2.83;;;;;;;;;;5072151;28;20434;-80
2023/03/27 05:45:45;;;;;;;7.73;3.00;;;;;;;;;;5067461;28;20429;-79
2023/03/27 05:48:11;;;;;;;9.63;2.70;;;;;;;;;;5068019;28;20419;-80
2023/03/27 05:50:38;;;;;;;7.70;3.40;;;;;;;;;;5068194;28;20482;-78
2023/03/27 05:53:07;;;;;;;5.57;2.55;;;;;;;;;;5067606;28;20407;-78
2023/03/27 05:55:34;;;;;;;10.55;2.70;;;;;;;;;;5069110;28;20822;-80
2023/03/27 05:58:01;;;;;;;11.80;3.85;;;;;;;;;;5072128;28;20431;-81
2023/03/27 06:00:32;;;;;;;7.85;2.90;;;;;;;;;;5067425;28;20423;-80
2023/03/27 06:03:00;;;;;;;6.93;2.80;;;;;;;;;;5069974;28;20479;-80
2023/03/27 06:05:28;;;;;;;7.38;2.85;;;;;;;;;;5068571;28;20419;-81
2023/03/27 06:07:57;;;;;;;9.38;3.47;;;;;;;;;;5068111;28;20486;-78
2023/03/27 06:10:25;;;;;;;7.85;2.60;;;;;;;;;;5065471;28;20421;-80
2023/03/27 06:13:00;;;;;;;7.15;2.70;;;;;;;;;;5069054;28;20453;-81
2023/03/27 06:15:26;;;;;;;7.37;2.80;;;;;;;;;;5068735;28;20481;-80
2023/03/27 06:17:53;;;;;;;7.70;3.30;;;;;;;;;;5074568;28;20427;-80
2023/03/27 06:20:21;;;;;;;14.27;2.90;;;;;;;;;;5071734;28;20429;-81
2023/03/27 06:22:49;;;;;;;8.88;3.28;;;;;;;;;;5070969;28;20834;-80
2023/03/27 06:25:15;;;;;;;6.95;2.58;;;;;;;;;;5073001;28;20413;-80
2023/03/27 06:27:42;;;;;;;6.90;2.80;;;;;;;;;;5070063;28;20433;-79
2023/03/27 06:30:11;;;;;;;7.32;2.55;;;;;;;;;;5079638;28;20787;-80
2023/03/27 06:32:42;;;;;;;12.00;3.38;;;;;;;;;;5075876;28;20458;-80
2023/03/27 06:35:09;;;;;;;5.70;3.63;;;;;;;;;;5073935;28;20413;-80
2023/03/27 06:37:36;;;;;;;11.45;3.33;;;;;;;;;;5075054;28;20430;-83
2023/03/27 06:40:06;;;;;;;7.18;2.53;;;;;;;;;;5077443;28;20421;-81
2023/03/27 06:42:33;;;;;;;5.60;2.08;;;;;;;;;;5078527;28;20414;-83
2023/03/27 06:44:59;;;;;;;4.93;1.80;;;;;;;;;;5072927;28;20415;-80
2023/03/27 06:47:28;;;;;;;5.78;2.08;;;;;;;;;;5062045;28;20416;-79
2023/03/27 06:49:56;;;;;;;9.00;2.10;;;;;;;;;;5064905;28;20984;-78
2023/03/27 06:52:22;;;;;;;7.13;2.40;;;;;;;;;;5066967;28;20420;-78
2023/03/27 06:54:49;;;;;;;5.05;1.60;;;;;;;;;;5065618;28;20425;-80
2023/03/27 06:57:15;;;;;;;8.63;2.63;;;;;;;;;;5069104;28;20425;-80
2023/03/27 06:59:42;;;;;;;4.43;1.90;;;;;;;;;;5066340;28;20933;-80
2023/03/27 07:02:11;;;;;;;3.78;1.90;;;;;;;;;;5066822;28;20767;-80
2023/03/27 07:04:37;;;;;;;3.20;1.77;;;;;;;;;;5067398;28;20416;-79
2023/03/27 07:07:05;;;;;;;8.43;2.40;;;;;;;;;;5059821;28;20431;-79
2023/03/27 07:09:31;;;;;;;6.53;2.65;;;;;;;;;;5062867;28;20435;-80
2023/03/27 07:11:58;;;;;;;7.28;2.80;;;;;;;;;;5062588;28;20434;-78
2023/03/27 07:14:24;;;;;;;7.18;3.00;;;;;;;;;;5066519;28;20797;-78
2023/03/27 07:16:50;;;;;;;8.68;3.00;;;;;;;;;;5063797;28;20439;-78
2023/03/27 07:19:17;;;;;;;6.70;2.70;;;;;;;;;;5063665;28;20404;-78
2023/03/27 07:21:44;;;;;;;6.90;2.40;;;;;;;;;;5067360;28;20417;-79
2023/03/27 07:24:11;;;;;;;4.47;1.95;;;;;;;;;;5066484;28;20416;-79
2023/03/27 07:26:38;;;;;;;5.65;2.53;;;;;;;;;;5065746;28;20430;-79
2023/03/27 07:29:09;;;;;;;3.53;1.70;;;;;;;;;;5061732;28;20785;-78
2023/03/27 07:31:35;;;;;;;3.25;1.70;;;;;;;;;;5066397;28;20465;-79
2023/03/27 07:34:02;;;;;;;6.25;1.67;;;;;;;;;;5062382;28;20414;-78
2023/03/27 07:36:28;;;;;;;5.40;1.80;;;;;;;;;;5063995;28;20433;-78
2023/03/27 07:38:55;;;;;;;4.60;1.70;;;;;;;;;;5065519;28;20449;-78
2023/03/27 07:41:23;;;;;;;8.18;2.20;;;;;;;;;;5066083;28;20427;-79
2023/03/27 07:43:50;;;;;;;3.17;1.50;;;;;;;;;;5067883;28;20412;-79
2023/03/27 07:46:16;;;;;;;5.03;1.48;;;;;;;;;;5064003;28;20424;-80
2023/03/27 07:48:44;;;;;;;3.50;1.60;;;;;;;;;;5071452;28;20777;-79
2023/03/27 07:51:10;;;;;;;6.35;1.60;;;;;;;;;;5066765;28;20495;-78
2023/03/27 07:53:37;;;;;;;8.73;1.88;;;;;;;;;;5065194;28;20407;-79
2023/03/27 07:56:05;;;;;;;5.77;1.80;;;;;;;;;;5062249;28;20456;-78
2023/03/27 07:58:32;;;;;;;6.68;1.73;;;;;;;;;;5067769;28;20483;-79
2023/03/27 08:01:00;;;;;;;5.07;1.60;;;;;;;;;;5065767;28;20419;-79
2023/03/27 08:03:27;;;;;;;6.03;1.60;;;;;;;;;;5066494;28;20419;-80
2023/03/27 08:05:54;;;;;;;2.80;1.30;;;;;;;;;;5070534;28;20421;-80
2023/03/27 08:08:22;;;;;;;4.47;1.70;;;;;;;;;;5062905;28;20419;-79
2023/03/27 08:10:49;;;;;;;5.80;2.13;;;;;;;;;;5067470;28;20416;-79
2023/03/27 08:13:15;;;;;;;8.32;1.85;;;;;;;;;;5064070;28;20519;-79
2023/03/27 08:15:43;;;;;;;4.63;1.70;;;;;;;;;;5064410;28;20769;-79
2023/03/27 08:18:10;;;;;;;1.92;1.00;;;;;;;;;;5063628;28;20435;-79
2023/03/27 08:20:36;;;;;;;3.83;1.23;;;;;;;;;;5063767;28;20907;-78
2023/03/27 08:23:03;;;;;;;3.72;1.50;;;;;;;;;;5060364;28;20419;-79
2023/03/27 08:25:31;;;;;;;3.35;1.27;;;;;;;;;;5059141;28;20414;-79
2023/03/27 08:27:58;;;;;;;2.75;1.20;;;;;;;;;;5061271;28;20446;-79
2023/03/27 08:30:25;;;;;;;3.33;1.50;;;;;;;;;;5068708;28;20422;-79
2023/03/27 08:32:52;;;;;;;5.25;1.90;;;;;;;;;;5067603;28;20416;-80
2023/03/27 08:35:19;;;;;;;6.55;1.83;;;;;;;;;;5064162;28;20413;-81
2023/03/27 08:37:46;;;;;;;4.63;1.25;;;;;;;;;;5063658;28;20429;-81
2023/03/27 08:40:17;;;;;;;3.42;1.40;;;;;;;;;;5062918;28;20435;-80
2023/03/27 08:42:45;;;;;;;4.78;1.20;;;;;;;;;;5060695;28;20448;-80
2023/03/27 08:45:18;;;;;;;4.45;1.30;;;;;;;;;;5063265;28;20513;-80
2023/03/27 08:47:50;;;;;;;6.20;1.10;;;;;;;;;;5064271;28;20417;-81
2023/03/27 08:50:25;;;;;;;3.40;1.30;;;;;;;;;;5059394;28;20846;-80
2023/03/27 08:52:52;;;;;;;4.45;1.40;;;;;;;;;;5066303;28;20419;-80
2023/03/27 08:55:21;;;;;;;6.45;1.38;;;;;;;;;;5058706;28;20415;-81
2023/03/27 08:57:49;;;;;;;3.60;1.83;;;;;;;;;;5061271;28;20512;-80
2023/03/27 09:00:21;;;;;;;4.20;1.70;;;;;;;;;;5060195;28;20432;-80
2023/03/27 09:02:51;;;;;;;6.50;1.52;;;;;;;;;;5062081;28;20843;-80
2023/03/27 09:05:21;;;;;;;5.70;1.60;;;;;;;;;;5063386;28;20413;-80
2023/03/27 09:07:52;;;;;;;5.03;1.40;;;;;;;;;;5062626;28;20411;-80
2023/03/27 09:10:21;;;;;;;3.92;1.55;;;;;;;;;;5059715;28;20415;-80
2023/03/27 09:12:54;;;;;;;7.80;1.77;;;;;;;;;;5066306;28;20953;-79
2023/03/27 09:15:24;;;;;;;5.35;1.90;;;;;;;;;;5062204;28;20844;-80
2023/03/27 09:17:54;;;;;;;6.63;2.20;;;;;;;;;;5066701;28;20921;-80
2023/03/27 09:20:24;;;;;;;10.88;2.00;;;;;;;;;;5062895;28;20429;-80
2023/03/27 09:22:52;;;;;;;4.18;1.60;;;;;;;;;;5062375;28;20498;-80
2023/03/27 09:25:23;;;;;;;7.00;2.42;;;;;;;;;;5061898;28;20476;-80
2023/03/27 09:27:51;;;;;;;8.88;3.78;;;;;;;;;;5064341;28;20426;-80
2023/03/27 09:30:20;;;;;;;7.80;2.85;;;;;;;;;;5062933;28;20408;-80
2023/03/27 09:32:47;;;;;;;4.80;1.95;;;;;;;;;;5062925;28;20411;-80
2023/03/27 09:35:15;;;;;;;6.65;2.45;;;;;;;;;;5063387;28;20432;-80
2023/03/27 09:37:42;;;;;;;5.60;1.75;;;;;;;;;;5063636;28;20436;-80
2023/03/27 09:40:20;;;;;;;5.55;1.63;;;;;;;;;;5063024;28;20424;-80
2023/03/27 09:42:48;;;;;;;4.10;1.60;;;;;;;;;;5063502;28;20438;-80
2023/03/27 09:45:15;;;;;;;4.07;1.50;;;;;;;;;;5065626;28;20417;-80
2023/03/27 09:47:45;;;;;;;6.28;1.50;;;;;;;;;;5064768;28;20417;-80
2023/03/27 09:50:24;;;;;;;4.38;1.50;;;;;;;;;;5059980;28;20505;-80
2023/03/27 09:53:05;;;;;;;7.45;2.00;;;;;;;;;;5068164;28;20462;-80
2023/03/27 09:55:33;;;;;;;5.47;1.75;;;;;;;;;;5070243;28;20415;-80
2023/03/27 09:58:14;;;;;;;4.40;1.50;;;;;;;;;;5064816;28;20423;-79
2023/03/27 10:00:41;;;;;;;5.45;1.70;;;;;;;;;;5065141;28;21274;-81
2023/03/27 10:03:13;;;;;;;6.40;1.80;;;;;;;;;;5065408;28;20430;-79
2023/03/27 10:05:40;;;;;;;8.05;2.00;;;;;;;;;;5064108;28;20412;-79
2023/03/27 10:08:27;;;;;;;5.00;1.50;;;;;;;;;;5066433;28;20413;-80
2023/03/27 10:10:56;;;;;;;6.93;1.73;;;;;;;;;;5065417;28;20409;-80
2023/03/27 10:13:23;;;;;;;4.07;1.20;;;;;;;;;;5068134;28;20518;-80
2023/03/27 10:15:49;;;;;;;3.13;1.23;;;;;;;;;;5070492;28;20776;-80
2023/03/27 10:18:22;;;;;;;7.50;1.38;;;;;;;;;;5069520;28;20911;-79
2023/03/27 10:20:52;;;;;;;6.30;1.80;;;;;;;;;;5066794;28;20413;-79
2023/03/27 10:23:24;;;;;;;5.10;1.58;;;;;;;;;;5071282;28;20415;-79
2023/03/27 10:25:51;;;;;;;7.35;1.60;;;;;;;;;;5066770;28;20403;-79
2023/03/27 10:28:21;;;;;;;4.25;1.25;;;;;;;;;;5068019;28;20428;-79
2023/03/27 10:30:57;;;;;;;5.40;1.77;;;;;;;;;;5066938;28;20416;-79
2023/03/27 10:33:34;;;;;;;5.35;1.65;;;;;;;;;;5065151;28;20496;-79
2023/03/27 10:36:02;;;;;;;5.72;1.50;;;;;;;;;;5067710;28;20461;-79
2023/03/27 10:38:32;;;;;;;6.00;1.33;;;;;;;;;;5064181;28;20440;-79
2023/03/27 10:40:59;;;;;;;3.28;1.13;;;;;;;;;;5068213;28;20415;-79
2023/03/27 10:43:28;;;;;;;4.10;1.00;;;;;;;;;;5064742;28;20431;-78
2023/03/27 10:45:56;;;;;;;3.08;0.98;;;;;;;;;;5065808;28;21066;-79
2023/03/27 10:48:37;;;;;;;2.80;0.70;;;;;;;;;;5064489;28;20419;-79
2023/03/27 10:51:05;;;;;;;1.40;0.70;;;;;;;;;;5065518;28;20535;-79
2023/03/27 10:53:39;;;;;;;1.95;1.10;;;;;;;;;;5067261;28;20442;-82
2023/03/27 10:56:10;;;;;;;0.90;0.60;;;;;;;;;;5061410;28;20426;-79
2023/03/27 10:58:40;;;;;;;2.53;0.80;;;;;;;;;;5068118;28;20403;-78
2023/03/27 11:01:10;;;;;;;3.75;0.85;;;;;;;;;;5062179;28;20429;-78
2023/03/27 11:03:39;;;;;;;3.90;1.00;;;;;;;;;;5068123;28;20406;-78
2023/03/27 11:06:07;;;;;;;4.13;0.93;;;;;;;;;;5067234;28;20437;-78
2023/03/27 11:08:42;;;;;;;5.00;1.15;;;;;;;;;;5064992;28;20402;-78
2023/03/27 11:11:12;;;;;;;3.05;1.00;;;;;;;;;;5061902;28;20425;-78
2023/03/27 11:13:41;;;;;;;2.45;1.00;;;;;;;;;;5065140;28;20416;-79
2023/03/27 11:16:11;;;;;;;5.25;1.50;;;;;;;;;;5066379;28;20451;-79
2023/03/27 11:18:39;;;;;;;4.72;1.10;;;;;;;;;;5062562;28;20406;-78
2023/03/27 11:21:11;;;;;;;4.53;1.20;;;;;;;;;;5065195;28;20416;-79
2023/03/27 11:23:41;;;;;;;3.95;1.00;;;;;;;;;;5065388;28;20410;-78
2023/03/27 11:26:11;;;;;;;4.63;1.00;;;;;;;;;;5066211;28;20427;-79
2023/03/27 11:28:41;;;;;;;3.80;1.50;;;;;;;;;;5064653;28;20409;-79
2023/03/27 11:31:12;;;;;;;4.85;1.05;;;;;;;;;;5064158;28;20419;-79
2023/03/27 11:33:41;;;;;;;6.13;1.02;;;;;;;;;;5060115;28;20417;-80
2023/03/27 11:36:15;;;;;;;4.78;1.10;;;;;;;;;;5065744;28;20418;-80
2023/03/27 11:38:44;;;;;;;5.13;1.80;;;;;;;;;;5066294;28;20407;-80
2023/03/27 11:41:11;;;;;;;5.90;1.50;;;;;;;;;;5069640;28;20461;-79
2023/03/27 11:43:39;;;;;;;5.95;1.48;;;;;;;;;;5067238;28;20430;-79
2023/03/27 11:46:16;;;;;;;5.60;1.20;;;;;;;;;;5067060;28;20415;-79
2023/03/27 11:48:50;;;;;;;6.38;1.42;;;;;;;;;;5068424;28;20403;-79
2023/03/27 11:51:20;;;;;;;5.43;1.30;;;;;;;;;;5069192;28;20813;-79
2023/03/27 11:53:55;;;;;;;2.53;1.40;;;;;;;;;;5066982;28;20480;-79
2023/03/27 11:56:30;;;;;;;5.13;1.20;;;;;;;;;;5063106;28;20465;-79
2023/03/27 11:59:09;;;;;;;5.82;1.55;;;;;;;;;;5069493;28;20406;-78
2023/03/27 12:01:39;;;;;;;4.22;0.90;;;;;;;;;;5063557;28;20495;-78
2023/03/27 12:04:11;;;;;;;1.90;1.10;;;;;;;;;;5069700;28;20412;-78
2023/03/27 12:06:40;;;;;;;1.90;0.90;;;;;;;;;;5069703;28;20409;-78
2023/03/27 12:09:24;;;;;;;3.50;0.90;;;;;;;;;;5064977;28;20424;-78
2023/03/27 12:11:58;;;;;;;1.08;0.52;;;;;;;;;;5033899;28;20409;-78
2023/03/27 12:14:33;;;;;;;3.40;1.00;;;;;;;;;;5059595;28;20421;-78
2023/03/27 12:17:06;;;;;;;2.55;0.85;;;;;;;;;;5065365;28;20415;-78
2023/03/27 12:19:44;;;;;;;3.85;1.00;;;;;;;;;;5063081;28;20851;-80
2023/03/27 12:22:19;;;;;;;3.88;1.60;;;;;;;;;;5066792;28;20417;-78
2023/03/27 12:24:53;;;;;;;2.90;1.17;;;;;;;;;;5059524;28;20419;-77
2023/03/27 12:27:27;;;;;;;3.93;1.10;;;;;;;;;;5064616;28;20409;-79
2023/03/27 12:29:59;;;;;;;6.15;1.48;;;;;;;;;;5065218;28;20497;-80
2023/03/27 12:32:37;;;;;;;5.82;1.45;;;;;;;;;;5063183;28;20488;-79
2023/03/27 12:35:05;;;;;;;3.37;0.90;;;;;;;;;;5067355;28;20421;-79
2023/03/27 12:37:37;;;;;;;4.20;1.30;;;;;;;;;;5066576;28;20420;-79
2023/03/27 12:40:12;;;;;;;3.03;1.00;;;;;;;;;;5064075;28;20420;-79
2023/03/27 12:42:50;;;;;;;3.33;1.80;;;;;;;;;;5061436;28;20439;-79
2023/03/27 12:45:18;;;;;;;3.33;1.00;;;;;;;;;;5065408;28;21079;-79
2023/03/27 12:47:45;;;;;;;5.63;1.40;;;;;;;;;;5064447;28;20411;-79
2023/03/27 12:50:17;;;;;;;5.60;1.30;;;;;;;;;;5066303;28;20421;-79
2023/03/27 12:52:44;;;;;;;4.60;1.50;;;;;;;;;;5068110;28;20435;-79
2023/03/27 12:55:34;;;;;;;2.92;1.30;;;;;;;;;;5067501;28;20419;-79
2023/03/27 12:58:04;;;;;;;4.82;1.23;;;;;;;;;;5060130;28;20498;-79
2023/03/27 13:00:31;;;;;;;5.07;1.48;;;;;;;;;;5066172;28;20419;-79
2023/03/27 13:03:19;;;;;;;5.25;1.30;;;;;;;;;;5063424;28;20419;-77
2023/03/27 13:05:54;;;;;;;5.97;1.80;;;;;;;;;;5067796;28;20427;-78
2023/03/27 13:08:30;;;;;;;4.88;2.10;;;;;;;;;;5060862;28;20415;-77
2023/03/27 13:10:58;;;;;;;7.35;2.10;;;;;;;;;;5061774;28;20490;-79
2023/03/27 13:13:38;;;;;;;6.60;1.30;;;;;;;;;;5065626;28;20407;-79
2023/03/27 13:16:26;;;;;;;5.33;1.47;;;;;;;;;;5064109;28;20427;-77
2023/03/27 13:18:59;;;;;;;3.55;1.13;;;;;;;;;;5055203;28;20442;-77
2023/03/27 13:21:30;;;;;;;4.70;1.20;;;;;;;;;;5063863;28;20902;-77
2023/03/27 13:24:08;;;;;;;4.20;1.20;;;;;;;;;;5064567;28;20482;-79
2023/03/27 13:26:46;;;;;;;4.20;1.10;;;;;;;;;;5063261;28;20516;-79
2023/03/27 13:29:19;;;;;;;3.60;1.17;;;;;;;;;;5068367;28;20449;-77
2023/03/27 13:31:56;;;;;;;4.10;1.60;;;;;;;;;;5068048;28;20482;-78
2023/03/27 13:34:28;;;;;;;2.13;1.15;;;;;;;;;;5066319;28;20441;-77
2023/03/27 13:37:05;;;;;;;6.97;1.50;;;;;;;;;;5065675;28;20417;-78
2023/03/27 13:39:39;;;;;;;10.52;1.70;;;;;;;;;;5068023;28;20447;-78
2023/03/27 13:42:06;;;;;;;3.75;1.23;;;;;;;;;;5067089;28;20417;-78
2023/03/27 13:44:45;;;;;;;7.00;1.95;;;;;;;;;;5068261;28;20415;-78
2023/03/27 13:47:21;;;;;;;4.70;1.50;;;;;;;;;;5068046;28;20440;-77
2023/03/27 13:49:59;;;;;;;7.87;1.87;;;;;;;;;;5068517;28;20448;-78
2023/03/27 13:52:33;;;;;;;4.50;1.40;;;;;;;;;;5066534;28;20420;-78
2023/03/27 13:55:15;;;;;;;4.00;1.67;;;;;;;;;;5068910;28;20489;-79
2023/03/27 13:57:55;;;;;;;4.15;1.33;;;;;;;;;;5068763;28;20421;-79
2023/03/27 14:00:40;;;;;;;3.80;1.50;;;;;;;;;;5070769;28;20415;-79
2023/03/27 14:03:40;;;;;;;3.47;1.27;;;;;;;;;;5066223;28;20420;-78
2023/03/27 14:06:35;;;;;;;4.57;1.65;;;;;;;;;;5066921;28;20414;-79
2023/03/27 14:09:04;;;;;;;7.00;1.88;;;;;;;;;;5043473;28;20478;-78
2023/03/27 14:11:41;;;;;;;3.42;1.13;;;;;;;;;;5069760;28;20414;-79
2023/03/27 14:14:28;;;;;;;6.18;1.70;;;;;;;;;;5065981;28;20417;-79
2023/03/27 14:17:10;;;;;;;4.78;1.50;;;;;;;;;;5063152;28;20417;-79
2023/03/27 14:20:05;;;;;;;5.32;1.50;;;;;;;;;;5062387;28;20513;-79
2023/03/27 14:22:34;;;;;;;7.80;2.05;;;;;;;;;;5063149;28;20471;-77
2023/03/27 14:25:03;;;;;;;6.47;1.70;;;;;;;;;;5066623;28;20826;-77
2023/03/27 14:27:31;;;;;;;5.93;1.20;;;;;;;;;;5069925;28;20416;-77
2023/03/27 14:30:06;;;;;;;5.28;1.40;;;;;;;;;;5069064;28;20428;-77
2023/03/27 14:32:34;;;;;;;5.60;2.10;;;;;;;;;;5066499;28;20420;-77
2023/03/27 14:35:03;;;;;;;6.70;1.60;;;;;;;;;;5066372;28;20416;-77
2023/03/27 14:37:30;;;;;;;4.75;1.40;;;;;;;;;;5064351;28;20859;-77
2023/03/27 14:39:59;;;;;;;7.45;1.60;;;;;;;;;;5064472;28;20416;-77
2023/03/27 14:42:26;;;;;;;8.75;1.50;;;;;;;;;;5066824;28;20421;-79
2023/03/27 14:44:53;;;;;;;4.38;1.40;;;;;;;;;;5068746;28;20432;-77
2023/03/27 14:47:21;;;;;;;8.70;1.10;;;;;;;;;;5067095;28;20416;-79
2023/03/27 14:49:52;;;;;;;4.10;1.55;;;;;;;;;;5067411;28;20511;-80
2023/03/27 14:52:21;;;;;;;5.97;1.50;;;;;;;;;;5066462;28;20445;-79
2023/03/27 14:54:48;;;;;;;7.10;2.20;;;;;;;;;;5066522;28;20420;-79
2023/03/27 14:57:15;;;;;;;4.80;1.63;;;;;;;;;;5064916;28;20442;-80